createdAt,value
2023-05-08T00:01:50.851Z,9.13
2023-05-08T00:04:19.681Z,9.03
2023-05-08T00:06:45.955Z,16.70
2023-05-08T00:09:12.518Z,9.20
2023-05-08T00:11:38.846Z,11.10
2023-05-08T00:14:05.437Z,10.87
2023-05-08T00:16:32.479Z,10.07
2023-05-08T00:18:59.810Z,11.97
2023-05-08T00:21:26.163Z,11.43
2023-05-08T00:23:52.565Z,12.90
2023-05-08T00:26:18.821Z,14.00
2023-05-08T00:28:45.035Z,11.67
2023-05-08T00:31:11.462Z,9.97
2023-05-08T00:33:39.138Z,11.70
2023-05-08T00:36:05.990Z,11.77
2023-05-08T00:38:33.123Z,10.23
2023-05-08T00:40:59.565Z,10.53
2023-05-08T00:43:27.485Z,12.13
2023-05-08T00:45:54.790Z,9.50
2023-05-08T00:48:21.267Z,9.93
2023-05-08T00:50:48.460Z,13.07
2023-05-08T00:53:15.364Z,8.63
2023-05-08T00:55:41.822Z,9.13
2023-05-08T00:58:08.549Z,8.27
2023-05-08T01:00:34.851Z,8.33
2023-05-08T01:03:01.354Z,9.50
2023-05-08T01:05:27.879Z,8.70
2023-05-08T01:07:54.734Z,12.43
2023-05-08T01:10:21.114Z,8.53
2023-05-08T01:12:59.277Z,8.57
2023-05-08T01:15:29.634Z,8.60
2023-05-08T01:18:04.484Z,12.87
2023-05-08T01:20:41.281Z,12.60
2023-05-08T01:23:38.631Z,10.20
2023-05-08T01:26:37.589Z,13.03
2023-05-08T01:29:42.981Z,9.37
2023-05-08T01:32:17.557Z,11.13
2023-05-08T01:34:52.136Z,8.17
2023-05-08T01:37:25.482Z,10.13
2023-05-08T01:39:57.541Z,12.80
2023-05-08T01:42:26.159Z,10.03
2023-05-08T01:44:54.578Z,9.60
2023-05-08T01:47:24.076Z,11.20
2023-05-08T01:49:58.422Z,11.33
2023-05-08T01:52:29.647Z,11.40
2023-05-08T01:54:58.692Z,11.00
2023-05-08T01:57:26.865Z,11.40
2023-05-08T01:59:54.483Z,12.87
2023-05-08T02:02:22.096Z,11.83
2023-05-08T02:04:49.337Z,10.27
2023-05-08T02:07:15.571Z,9.23
2023-05-08T02:09:43.238Z,8.57
2023-05-08T02:12:09.842Z,11.23
2023-05-08T02:14:37.899Z,10.03
2023-05-08T02:17:05.569Z,7.50
2023-05-08T02:19:33.770Z,11.60
2023-05-08T02:22:00.930Z,11.53
2023-05-08T02:24:27.449Z,9.03
2023-05-08T02:26:53.954Z,9.23
2023-05-08T02:29:21.998Z,10.50
2023-05-08T02:31:48.328Z,10.53
2023-05-08T02:34:15.482Z,7.77
2023-05-08T02:36:42.865Z,7.40
2023-05-08T02:39:11.427Z,9.20
2023-05-08T02:41:40.434Z,11.90
2023-05-08T02:44:06.764Z,9.43
2023-05-08T02:46:39.159Z,11.57
2023-05-08T02:49:07.985Z,12.50
2023-05-08T02:51:53.854Z,13.03
2023-05-08T02:54:23.795Z,8.63
2023-05-08T02:56:55.561Z,7.33
2023-05-08T02:59:24.995Z,8.57
2023-05-08T03:01:56.477Z,8.40
2023-05-08T03:04:27.840Z,8.87
2023-05-08T03:06:56.641Z,9.23
2023-05-08T03:09:25.557Z,6.80
2023-05-08T03:11:57.595Z,10.60
2023-05-08T03:14:26.316Z,8.60
2023-05-08T03:16:53.394Z,8.03
2023-05-08T03:19:23.571Z,8.80
2023-05-08T03:21:51.362Z,8.27
2023-05-08T03:24:19.755Z,10.83
2023-05-08T03:26:46.149Z,9.97
2023-05-08T03:29:13.549Z,11.33
2023-05-08T03:31:41.088Z,8.13
2023-05-08T03:34:08.285Z,10.53
2023-05-08T03:36:34.780Z,9.37
2023-05-08T03:39:01.371Z,8.77
2023-05-08T03:41:28.788Z,11.93
2023-05-08T03:43:56.018Z,8.33
2023-05-08T03:46:22.937Z,13.97
2023-05-08T03:48:49.417Z,8.70
2023-05-08T03:51:15.883Z,12.00
2023-05-08T03:53:44.359Z,8.10
2023-05-08T03:56:10.608Z,7.57
2023-05-08T03:58:41.341Z,6.10
2023-05-08T04:01:12.028Z,6.53
2023-05-08T04:03:47.425Z,10.13
2023-05-08T04:06:16.229Z,6.80
2023-05-08T04:08:50.058Z,7.63
2023-05-08T04:11:23.022Z,8.70
2023-05-08T04:13:54.348Z,7.17
2023-05-08T04:16:24.315Z,9.13
2023-05-08T04:18:54.356Z,8.87
2023-05-08T04:21:23.201Z,13.73
2023-05-08T04:23:50.201Z,13.80
2023-05-08T04:26:18.094Z,9.63
2023-05-08T04:28:45.989Z,10.83
2023-05-08T04:31:13.825Z,11.37
2023-05-08T04:33:40.569Z,11.23
2023-05-08T04:36:11.456Z,9.67
2023-05-08T04:38:37.666Z,12.37
2023-05-08T04:41:04.096Z,12.10
2023-05-08T04:43:30.355Z,10.30
2023-05-08T04:45:56.746Z,11.23
2023-05-08T04:48:24.214Z,9.93
2023-05-08T04:50:50.383Z,10.90
2023-05-08T04:53:16.696Z,16.33
2023-05-08T04:55:42.945Z,14.10
2023-05-08T04:58:10.112Z,13.27
2023-05-08T05:00:36.355Z,14.80
2023-05-08T05:03:02.595Z,13.30
2023-05-08T05:05:29.470Z,12.90
2023-05-08T05:07:55.719Z,11.90
2023-05-08T05:10:21.956Z,15.33
2023-05-08T05:12:48.142Z,14.03
2023-05-08T05:15:15.042Z,15.70
2023-05-08T05:17:41.553Z,12.67
2023-05-08T05:20:08.973Z,11.33
2023-05-08T05:22:35.949Z,12.53
2023-05-08T05:25:02.230Z,16.60
2023-05-08T05:27:28.594Z,13.60
2023-05-08T05:29:54.756Z,13.33
2023-05-08T05:32:20.995Z,12.93
2023-05-08T05:34:47.237Z,13.63
2023-05-08T05:37:13.426Z,15.63
2023-05-08T05:39:40.232Z,15.77
2023-05-08T05:42:06.705Z,15.37
2023-05-08T05:44:32.852Z,13.57
2023-05-08T05:46:59.118Z,12.53
2023-05-08T05:49:25.373Z,12.97
2023-05-08T05:51:51.701Z,14.50
2023-05-08T05:54:17.906Z,18.07
2023-05-08T05:56:44.698Z,18.57
2023-05-08T05:59:10.901Z,14.30
2023-05-08T06:01:38.001Z,13.57
2023-05-08T06:04:05.019Z,13.77
2023-05-08T06:06:31.510Z,11.90
2023-05-08T06:08:57.670Z,16.50
2023-05-08T06:11:24.025Z,15.50
2023-05-08T06:13:50.888Z,13.60
2023-05-08T06:16:17.263Z,15.23
2023-05-08T06:18:43.479Z,17.43
2023-05-08T06:21:09.636Z,14.53
2023-05-08T06:23:36.016Z,16.33
2023-05-08T06:26:02.492Z,12.90
2023-05-08T06:28:28.632Z,16.93
2023-05-08T06:30:55.581Z,14.07
2023-05-08T06:33:22.491Z,15.83
2023-05-08T06:35:49.885Z,15.43
2023-05-08T06:38:16.154Z,11.57
2023-05-08T06:40:43.215Z,12.33
2023-05-08T06:43:09.583Z,16.03
2023-05-08T06:45:35.926Z,13.50
2023-05-08T06:48:03.121Z,18.57
2023-05-08T06:50:30.442Z,13.87
2023-05-08T06:52:56.625Z,14.53
2023-05-08T06:55:22.833Z,13.17
2023-05-08T06:57:49.092Z,15.03
2023-05-08T07:00:15.667Z,12.47
2023-05-08T07:02:42.075Z,11.57
2023-05-08T07:05:09.647Z,10.10
2023-05-08T07:07:36.254Z,9.53
2023-05-08T07:10:02.798Z,8.90
2023-05-08T07:12:28.933Z,8.57
2023-05-08T07:14:56.000Z,8.67
2023-05-08T07:17:24.095Z,9.63
2023-05-08T07:19:50.640Z,10.13
2023-05-08T07:22:17.565Z,9.80
2023-05-08T07:24:43.758Z,9.20
2023-05-08T07:27:09.952Z,10.40
2023-05-08T07:29:36.104Z,10.57
2023-05-08T07:32:02.497Z,10.43
2023-05-08T07:34:28.741Z,8.10
2023-05-08T07:36:54.940Z,8.27
2023-05-08T07:39:21.711Z,8.57
2023-05-08T07:41:49.914Z,11.43
2023-05-08T07:44:16.341Z,8.70
2023-05-08T07:46:42.568Z,10.03
2023-05-08T07:49:08.856Z,8.50
2023-05-08T07:51:35.052Z,7.40
2023-05-08T07:54:01.251Z,7.33
2023-05-08T07:56:28.106Z,9.47
2023-05-08T07:58:54.412Z,9.37
2023-05-08T08:01:20.619Z,7.93
2023-05-08T08:03:47.104Z,8.17
2023-05-08T08:06:13.624Z,8.60
2023-05-08T08:08:39.801Z,10.37
2023-05-08T08:11:06.220Z,8.37
2023-05-08T08:13:33.289Z,10.03
2023-05-08T08:16:00.356Z,8.53
2023-05-08T08:18:26.757Z,9.00
2023-05-08T08:20:53.002Z,8.57
2023-05-08T08:23:19.278Z,8.57
2023-05-08T08:25:45.634Z,11.13
2023-05-08T08:28:11.904Z,8.60
2023-05-08T08:30:38.806Z,8.67
2023-05-08T08:33:05.570Z,9.07
2023-05-08T08:35:32.559Z,9.90
2023-05-08T08:37:58.878Z,9.57
2023-05-08T08:40:25.507Z,9.20
2023-05-08T08:42:51.684Z,9.20
2023-05-08T08:45:17.960Z,12.10
2023-05-08T08:47:45.751Z,9.80
2023-05-08T08:50:14.560Z,11.30
2023-05-08T08:52:45.556Z,8.43
2023-05-08T08:55:15.756Z,7.30
2023-05-08T08:57:46.999Z,6.87
2023-05-08T09:00:14.778Z,7.10
2023-05-08T09:02:41.125Z,6.37
2023-05-08T09:05:09.055Z,5.53
2023-05-08T09:07:35.965Z,6.70
2023-05-08T09:10:02.568Z,7.40
2023-05-08T09:12:28.766Z,7.23
2023-05-08T09:14:55.141Z,5.87
2023-05-08T09:17:21.663Z,6.00
2023-05-08T09:19:48.711Z,6.00
2023-05-08T09:22:15.579Z,5.87
2023-05-08T09:24:55.531Z,9.53
2023-05-08T09:27:22.470Z,5.67
2023-05-08T09:29:58.743Z,6.10
2023-05-08T09:32:24.922Z,5.73
2023-05-08T09:34:52.370Z,5.93
2023-05-08T09:37:19.460Z,11.17
2023-05-08T09:39:46.914Z,7.13
2023-05-08T09:42:13.729Z,6.00
2023-05-08T09:44:44.448Z,8.27
2023-05-08T09:47:12.189Z,6.00
2023-05-08T09:49:39.845Z,6.23
2023-05-08T09:52:06.541Z,7.87
2023-05-08T09:54:34.361Z,5.53
2023-05-08T09:57:01.045Z,7.87
2023-05-08T09:59:28.588Z,10.20
2023-05-08T10:01:55.429Z,6.83
2023-05-08T10:04:31.902Z,6.53
2023-05-08T10:06:58.326Z,6.80
2023-05-08T10:09:26.092Z,11.43
2023-05-08T10:11:54.809Z,9.33
2023-05-08T10:14:21.752Z,5.93
2023-05-08T10:16:51.188Z,5.97
2023-05-08T10:19:18.991Z,4.43
2023-05-08T10:21:48.554Z,5.20
2023-05-08T10:24:16.303Z,5.30
2023-05-08T10:26:57.170Z,5.30
2023-05-08T10:29:32.170Z,4.90
2023-05-08T10:31:59.128Z,4.63
2023-05-08T10:34:27.274Z,6.70
2023-05-08T10:36:54.550Z,5.90
2023-05-08T10:39:21.343Z,4.87
2023-05-08T10:41:48.646Z,4.37
2023-05-08T10:44:15.152Z,4.53
2023-05-08T10:46:46.561Z,5.20
2023-05-08T10:49:19.219Z,3.53
2023-05-08T10:51:54.415Z,3.63
2023-05-08T10:54:27.444Z,6.67
2023-05-08T10:57:07.415Z,3.87
2023-05-08T10:59:35.417Z,4.73
2023-05-08T11:02:05.111Z,3.60
2023-05-08T11:04:31.785Z,3.63
2023-05-08T11:06:58.356Z,3.80
2023-05-08T11:09:28.042Z,6.23
2023-05-08T11:12:03.310Z,4.20
2023-05-08T11:14:30.147Z,6.83
2023-05-08T11:17:15.346Z,4.80
2023-05-08T11:19:55.838Z,5.10
2023-05-08T11:22:25.015Z,4.43
2023-05-08T11:24:56.571Z,4.23
2023-05-08T11:28:03.265Z,3.40
2023-05-08T11:30:37.892Z,6.13
2023-05-08T11:33:14.842Z,4.67
2023-05-08T11:35:52.215Z,4.40
2023-05-08T11:38:20.774Z,5.33
2023-05-08T11:40:49.073Z,4.90
2023-05-08T11:43:58.795Z,4.57
2023-05-08T11:46:36.799Z,4.00
2023-05-08T11:49:05.914Z,7.00
2023-05-08T11:51:32.672Z,4.93
2023-05-08T11:54:02.331Z,7.07
2023-05-08T11:56:28.701Z,6.50
2023-05-08T11:59:04.362Z,5.80
2023-05-08T12:01:31.890Z,9.60
2023-05-08T12:04:02.912Z,5.60
2023-05-08T12:06:31.231Z,4.77
2023-05-08T12:08:57.969Z,5.53
2023-05-08T12:11:24.296Z,7.60
2023-05-08T12:13:51.658Z,7.03
2023-05-08T12:16:18.376Z,9.03
2023-05-08T12:18:44.862Z,6.80
2023-05-08T12:21:11.954Z,7.47
2023-05-08T12:23:38.337Z,5.70
2023-05-08T12:26:04.600Z,3.33
2023-05-08T12:28:31.495Z,3.47
2023-05-08T12:30:58.041Z,5.53
2023-05-08T12:33:24.331Z,3.73
2023-05-08T12:35:50.962Z,4.00
2023-05-08T12:38:18.033Z,4.20
2023-05-08T12:40:45.287Z,4.43
2023-05-08T12:43:14.562Z,5.17
2023-05-08T12:45:41.950Z,4.50
2023-05-08T12:48:09.623Z,4.03
2023-05-08T12:50:37.794Z,3.73
2023-05-08T12:53:05.426Z,6.30
2023-05-08T12:55:34.707Z,4.10
2023-05-08T12:58:06.154Z,7.90
2023-05-08T13:00:40.212Z,3.30
2023-05-08T13:03:07.328Z,4.03
2023-05-08T13:05:34.831Z,3.80
2023-05-08T13:08:01.758Z,4.93
2023-05-08T13:10:44.653Z,4.50
2023-05-08T13:13:10.852Z,5.37
2023-05-08T13:15:37.082Z,4.37
2023-05-08T13:18:03.749Z,5.10
2023-05-08T13:20:30.213Z,4.57
2023-05-08T13:22:56.870Z,4.20
2023-05-08T13:25:23.075Z,5.53
2023-05-08T13:27:50.285Z,3.83
2023-05-08T13:30:17.205Z,6.03
2023-05-08T13:32:43.442Z,4.33
2023-05-08T13:35:09.739Z,5.10
2023-05-08T13:37:35.983Z,5.00
2023-05-08T13:40:02.815Z,6.13
2023-05-08T13:42:29.812Z,3.70
2023-05-08T13:44:57.228Z,3.20
2023-05-08T13:47:23.920Z,6.57
2023-05-08T13:49:50.216Z,3.67
2023-05-08T13:52:16.544Z,5.17
2023-05-08T13:54:43.082Z,3.97
2023-05-08T13:57:10.055Z,5.33
2023-05-08T13:59:36.311Z,3.90
2023-05-08T14:02:04.382Z,4.67
2023-05-08T14:04:31.174Z,3.37
2023-05-08T14:06:57.521Z,3.20
2023-05-08T14:09:23.769Z,3.03
2023-05-08T14:11:50.017Z,3.17
2023-05-08T14:14:16.217Z,2.90
2023-05-08T14:16:42.469Z,3.00
2023-05-08T14:19:09.423Z,6.20
2023-05-08T14:21:36.188Z,2.50
2023-05-08T14:24:02.562Z,2.53
2023-05-08T14:26:28.930Z,2.60
2023-05-08T14:28:55.082Z,2.50
2023-05-08T14:31:21.295Z,2.70
2023-05-08T14:33:47.625Z,2.17
2023-05-08T14:36:14.721Z,2.20
2023-05-08T14:38:40.998Z,2.10
2023-05-08T14:41:07.275Z,2.40
2023-05-08T14:43:33.458Z,2.50
2023-05-08T14:46:00.448Z,2.97
2023-05-08T14:48:26.955Z,2.87
2023-05-08T14:50:53.283Z,4.03
2023-05-08T14:53:21.175Z,3.33
2023-05-08T14:55:47.865Z,6.67
2023-05-08T14:58:14.402Z,4.03
2023-05-08T15:00:40.716Z,4.27
2023-05-08T15:03:07.204Z,5.97
2023-05-08T15:05:33.431Z,5.40
2023-05-08T15:08:01.898Z,5.60
2023-05-08T15:10:28.944Z,8.57
2023-05-08T15:12:55.257Z,5.23
2023-05-08T15:15:21.599Z,6.13
2023-05-08T15:17:47.789Z,5.83
2023-05-08T15:20:14.147Z,6.53
2023-05-08T15:22:40.376Z,7.80
2023-05-08T15:25:07.186Z,7.07
2023-05-08T15:27:34.061Z,8.13
2023-05-08T15:30:00.299Z,8.97
2023-05-08T15:32:26.540Z,8.73
2023-05-08T15:34:53.046Z,7.83
2023-05-08T15:37:19.287Z,8.13
2023-05-08T15:39:45.493Z,8.00
2023-05-08T15:42:11.729Z,11.17
2023-05-08T15:44:54.188Z,8.00
2023-05-08T15:47:22.259Z,8.10
2023-05-08T15:49:48.485Z,10.57
2023-05-08T15:52:17.823Z,8.80
2023-05-08T15:54:43.998Z,9.07
2023-05-08T15:57:10.123Z,11.20
2023-05-08T15:59:36.911Z,12.43
2023-05-08T16:02:03.927Z,8.20
2023-05-08T16:04:30.163Z,10.80
2023-05-08T16:06:56.382Z,9.30
2023-05-08T16:09:22.695Z,10.67
2023-05-08T16:11:48.894Z,9.93
2023-05-08T16:14:16.075Z,8.43
2023-05-08T16:16:42.512Z,9.87
2023-05-08T16:19:09.430Z,9.07
2023-05-08T16:21:35.659Z,13.17
2023-05-08T16:24:02.170Z,9.20
2023-05-08T16:26:28.490Z,10.60
2023-05-08T16:28:54.702Z,8.97
2023-05-08T16:31:20.914Z,12.17
2023-05-08T16:33:47.479Z,11.37
2023-05-08T16:36:14.385Z,12.20
2023-05-08T16:38:41.356Z,12.40
2023-05-08T16:41:09.472Z,14.07
2023-05-08T16:43:35.736Z,10.20
2023-05-08T16:46:02.075Z,14.93
2023-05-08T16:48:29.536Z,9.70
2023-05-08T16:50:56.334Z,9.97
2023-05-08T16:53:23.206Z,11.33
2023-05-08T16:55:50.096Z,11.40
2023-05-08T16:58:16.335Z,10.57
2023-05-08T17:00:44.920Z,13.30
2023-05-08T17:03:11.627Z,10.00
2023-05-08T17:05:40.665Z,8.53
2023-05-08T17:08:07.186Z,12.13
2023-05-08T17:10:34.110Z,9.00
2023-05-08T17:13:00.765Z,9.70
2023-05-08T17:15:27.016Z,8.20
2023-05-08T17:17:53.564Z,7.87
2023-05-08T17:20:19.923Z,8.57
2023-05-08T17:22:46.123Z,7.53
2023-05-08T17:25:12.847Z,7.17
2023-05-08T17:27:39.710Z,9.70
2023-05-08T17:30:09.214Z,6.90
2023-05-08T17:32:36.114Z,8.43
2023-05-08T17:35:02.508Z,8.63
2023-05-08T17:37:29.218Z,7.93
2023-05-08T17:39:55.480Z,7.57
2023-05-08T17:42:21.783Z,12.87
2023-05-08T17:44:48.687Z,8.67
2023-05-08T17:47:14.895Z,9.57
2023-05-08T17:49:41.403Z,10.40
2023-05-08T17:52:07.534Z,7.33
2023-05-08T17:54:33.807Z,7.97
2023-05-08T17:57:00.815Z,7.23
2023-05-08T17:59:27.978Z,9.53
2023-05-08T18:01:54.824Z,8.90
2023-05-08T18:04:21.030Z,7.77
2023-05-08T18:06:48.641Z,9.07
2023-05-08T18:09:15.152Z,10.20
2023-05-08T18:11:41.638Z,7.20
2023-05-08T18:14:08.312Z,11.20
2023-05-08T18:16:34.535Z,6.27
2023-05-08T18:19:01.444Z,6.20
2023-05-08T18:21:28.408Z,5.97
2023-05-08T18:23:55.162Z,9.20
2023-05-08T18:26:21.733Z,6.17
2023-05-08T18:28:49.355Z,9.80
2023-05-08T18:31:16.914Z,6.13
2023-05-08T18:33:43.679Z,5.60
2023-05-08T18:36:10.500Z,7.17
2023-05-08T18:38:36.644Z,6.27
2023-05-08T18:41:03.038Z,6.80
2023-05-08T18:43:29.453Z,6.90
2023-05-08T18:45:56.884Z,6.93
2023-05-08T18:48:23.065Z,5.83
2023-05-08T18:50:49.333Z,5.70
2023-05-08T18:53:16.364Z,5.50
2023-05-08T18:55:42.517Z,8.53
2023-05-08T18:58:08.814Z,5.53
2023-05-08T19:00:35.462Z,13.43
2023-05-08T19:03:02.066Z,6.40
2023-05-08T19:05:28.522Z,6.83
2023-05-08T19:07:55.010Z,5.90
2023-05-08T19:10:22.184Z,6.40
2023-05-08T19:12:50.201Z,15.43
2023-05-08T19:15:16.500Z,7.03
2023-05-08T19:17:42.904Z,5.90
2023-05-08T19:20:10.357Z,6.20
2023-05-08T19:22:36.597Z,8.67
2023-05-08T19:25:03.786Z,6.20
2023-05-08T19:27:31.972Z,8.43
2023-05-08T19:29:58.711Z,5.67
2023-05-08T19:32:25.286Z,7.83
2023-05-08T19:34:51.578Z,8.37
2023-05-08T19:37:18.127Z,6.97
2023-05-08T19:39:44.529Z,16.13
2023-05-08T19:42:13.070Z,7.00
2023-05-08T19:44:40.153Z,8.40
2023-05-08T19:47:07.118Z,8.03
2023-05-08T19:49:33.544Z,7.00
2023-05-08T19:51:59.964Z,7.67
2023-05-08T19:54:26.146Z,9.37
2023-05-08T19:56:52.397Z,7.40
2023-05-08T19:59:19.246Z,7.07
2023-05-08T20:01:46.078Z,6.70
2023-05-08T20:04:12.405Z,7.87
2023-05-08T20:06:38.699Z,8.30
2023-05-08T20:09:05.569Z,7.30
2023-05-08T20:11:32.438Z,9.47
2023-05-08T20:13:58.572Z,6.83
2023-05-08T20:16:24.830Z,9.53
2023-05-08T20:18:52.617Z,8.83
2023-05-08T20:21:18.866Z,9.50
2023-05-08T20:23:45.300Z,10.83
2023-05-08T20:26:11.578Z,9.37
2023-05-08T20:28:37.943Z,7.90
2023-05-08T20:31:04.249Z,7.93
2023-05-08T20:33:30.487Z,11.37
2023-05-08T20:35:57.378Z,9.83
2023-05-08T20:38:23.762Z,8.10
2023-05-08T20:40:50.306Z,11.57
2023-05-08T20:43:16.519Z,9.50
2023-05-08T20:45:42.961Z,9.40
2023-05-08T20:48:09.291Z,7.63
2023-05-08T20:50:35.595Z,10.07
2023-05-08T20:53:02.965Z,9.57
2023-05-08T20:55:29.223Z,9.30
2023-05-08T20:57:55.616Z,8.47
2023-05-08T21:00:21.918Z,8.63
2023-05-08T21:02:48.624Z,9.87
2023-05-08T21:05:15.031Z,11.43
2023-05-08T21:07:41.712Z,7.83
2023-05-08T21:10:09.576Z,7.37
2023-05-08T21:12:35.870Z,9.43
2023-05-08T21:15:02.769Z,9.77
2023-05-08T21:17:29.242Z,14.60
2023-05-08T21:19:56.247Z,8.73
2023-05-08T21:22:25.801Z,15.40
2023-05-08T21:24:52.022Z,13.07
2023-05-08T21:27:18.887Z,9.40
2023-05-08T21:29:45.043Z,12.97
2023-05-08T21:32:11.305Z,11.27
2023-05-08T21:34:38.393Z,9.53
2023-05-08T21:37:04.681Z,11.87
2023-05-08T21:39:30.938Z,9.83
2023-05-08T21:41:57.766Z,11.03
2023-05-08T21:44:24.652Z,10.57
2023-05-08T21:46:51.020Z,10.77
2023-05-08T21:49:17.296Z,11.37
2023-05-08T21:51:44.965Z,10.57
2023-05-08T21:54:13.467Z,9.37
2023-05-08T21:56:39.864Z,9.37
2023-05-08T21:59:06.513Z,13.30
2023-05-08T22:01:33.992Z,12.93
2023-05-08T22:04:00.747Z,11.13
2023-05-08T22:06:27.561Z,9.17
2023-05-08T22:08:53.752Z,10.13
2023-05-08T22:11:21.656Z,11.77
2023-05-08T22:13:47.905Z,10.80
2023-05-08T22:16:14.163Z,11.07
2023-05-08T22:18:41.130Z,10.93
2023-05-08T22:21:07.640Z,13.77
2023-05-08T22:23:33.922Z,10.43
2023-05-08T22:26:00.248Z,10.80
2023-05-08T22:28:26.563Z,13.27
2023-05-08T22:30:52.828Z,10.50
2023-05-08T22:33:19.228Z,9.97
2023-05-08T22:35:46.412Z,11.03
2023-05-08T22:38:12.643Z,9.90
2023-05-08T22:40:39.203Z,11.47
2023-05-08T22:43:05.829Z,11.43
2023-05-08T22:45:32.125Z,10.13
2023-05-08T22:47:58.960Z,11.30
2023-05-08T22:50:25.448Z,15.50
2023-05-08T22:52:52.334Z,17.23
2023-05-08T22:55:18.516Z,11.90
2023-05-08T22:57:44.995Z,11.83
2023-05-08T23:00:12.303Z,14.17
2023-05-08T23:02:39.092Z,10.17
2023-05-08T23:05:06.621Z,20.73
2023-05-08T23:07:33.054Z,10.50
2023-05-08T23:10:00.276Z,12.57
2023-05-08T23:12:26.694Z,11.07
2023-05-08T23:14:53.140Z,12.37
2023-05-08T23:17:19.449Z,12.00
2023-05-08T23:19:45.706Z,11.53
2023-05-08T23:22:12.056Z,11.37
2023-05-08T23:24:38.568Z,14.43
2023-05-08T23:27:05.651Z,14.17
2023-05-08T23:29:32.346Z,14.73
2023-05-08T23:31:58.976Z,14.47
2023-05-08T23:34:25.245Z,12.57
2023-05-08T23:36:52.007Z,13.37
2023-05-08T23:39:18.479Z,14.10
2023-05-08T23:41:44.737Z,18.60
2023-05-08T23:44:11.638Z,13.67
2023-05-08T23:46:38.313Z,14.67
2023-05-08T23:49:06.464Z,19.03
2023-05-08T23:51:32.774Z,13.77
2023-05-08T23:53:59.015Z,15.63
2023-05-08T23:56:26.106Z,11.37
2023-05-08T23:58:52.380Z,16.17
